Terminal Aerodrome Forecast
Issued by NWS Bismarck, ND

Home | Current Version | Previous Version | Text Only | Print | Product List | Glossary Off
Versions: 1 2 3 4 5 6 7 8 9 10 11 12 13 14 15 16 17 18 19 20

421
FTUS43 KBIS 081730
TAFISN
TAF
KISN 081730Z 0818/0918 29008KT P6SM BKN015 BKN025
      TEMPO 0818/0821 SCT015 SCT025
     FM090100 VRB03KT P6SM BKN035
     FM090800 VRB03KT P6SM BKN030
     FM091000 VRB03KT P6SM BKN015=

USA.gov is the U.S. government's official web portal to all federal, state and local government web resources and services.